X-preSS Tajumulco — 9V2362 — position and weather

sailwx.info

Track history (hours):
 
Tides and Currents Weather Stations Pressure Air Temp Water Temp Dewpoint Dewpoint Depression Visibility Wind Speed Wind Dir Waves Ship Positions

X-preSS Tajumulco

Last reported at 2017-Nov-10 18:31 UTC. Time now 2017-Nov-21 02:30 UTC.
Position N 10°19' W 075°47'.
Warning: this ship's position is 10 days out of date.

Length 140 m; draft 7.3 m.

Type: Ship (hazmat cat A). MMSI: 564050000.

Date/timePositionNaut miles runAvg speedWind from/ knotsBaromVisibWave heightAir tempDewpointWater temp
2017-Nov-10 18:31N 10°19' W 075°47'010.6
2017-Nov-10 18:28N 10°19' W 075°47'510.7
2017-Nov-10 18:00N 10°19' W 075°42'611.1
2017-Nov-10 17:30N 10°19' W 075°36'4 9.0
2017-Nov-10 17:00N 10°21' W 075°32'3 6.9
2017-Nov-10 16:30N 10°24' W 075°32'0 0.0
2017-Nov-10 16:00N 10°24' W 075°32'0 0.0
2017-Nov-10 15:30N 10°24' W 075°32'0 0.0
2017-Nov-10 14:57N 10°24' W 075°32'0 0.0
2017-Nov-10 14:18N 10°24' W 075°32'0 0.0
2017-Nov-10 13:06N 10°24' W 075°32'0 0.0
2017-Nov-10 13:00N 10°24' W 075°32'0 0.0
2017-Nov-10 12:30N 10°24' W 075°32'5 0.4
2017-Nov-10 00:16N 10°20' W 075°33'14 6.1
2017-Nov-09 21:53N 10°28' W 075°45'74 3.2
2017-Nov-08 22:40N 11°11' W 074°43'412.3
2017-Nov-08 22:23N 11°11' W 074°47'512.0
2017-Nov-08 22:00N 11°10' W 074°51'3 5.6
2017-Nov-08 21:30N 11°07' W 074°52'5 9.6
2017-Nov-08 21:00N 11°03' W 074°50'2 0.1
2017-Nov-07 17:34N 11°01' W 074°47'1 7.9
2017-Nov-07 17:30N 11°02' W 074°48'4 7.7
2017-Nov-07 17:00N 11°04' W 074°51'3 6.9
2017-Nov-07 16:30N 11°07' W 074°53'4 8.6
2017-Nov-07 16:00N 11°07' W 074°57'4110.2
2017-Nov-07 12:00N 10°46' W 075°33'1111.3
2017-Nov-07 11:04N 10°37' W 075°39'111.3
2017-Nov-07 10:57N 10°36' W 075°40'1110.8
2017-Nov-07 09:57N 10°26' W 075°44'510.0
2017-Nov-07 09:30N 10°22' W 075°43'11 7.9
2017-Nov-07 08:08N 10°22' W 075°32'110.6
2017-Nov-07 08:00N 10°23' W 075°32'1 2.2
2017-Nov-07 07:30N 10°24' W 075°32'0 0.0
2017-Nov-07 07:00N 10°24' W 075°32'0 0.0
2017-Nov-07 06:30N 10°24' W 075°32'0 0.0
2017-Nov-07 06:00N 10°24' W 075°32'0 0.0
2017-Nov-07 05:30N 10°24' W 075°32'0 0.0
2017-Nov-07 05:00N 10°24' W 075°32'0 0.0
2017-Nov-07 04:30N 10°24' W 075°32'0 0.0
2017-Nov-07 04:00N 10°24' W 075°32'0 0.0
2017-Nov-07 03:30N 10°24' W 075°32'0 0.0
2017-Nov-07 03:00N 10°24' W 075°32'0 0.0
2017-Nov-07 02:30N 10°24' W 075°32'0 0.0
2017-Nov-07 02:00N 10°24' W 075°32'0 0.0
2017-Nov-07 01:30N 10°24' W 075°32'0 0.0
2017-Nov-07 01:00N 10°24' W 075°32'0 0.0
2017-Nov-07 00:30N 10°24' W 075°32'0 0.0
2017-Nov-07 00:00N 10°24' W 075°32'0 0.0
2017-Nov-06 23:30N 10°24' W 075°32'0 0.0
2017-Nov-06 23:00N 10°24' W 075°32'0 0.0
2017-Nov-06 22:30N 10°24' W 075°32'0 0.0
2017-Nov-06 21:57N 10°24' W 075°32'0 0.0
2017-Nov-06 21:30N 10°24' W 075°32'0 0.0
2017-Nov-06 21:00N 10°24' W 075°32'0 0.0
2017-Nov-06 20:30N 10°24' W 075°32'  
Track history (hours):
 
Tides and Currents Weather Stations Pressure Air Temp Water Temp Dewpoint Dewpoint Depression Visibility Wind Speed Wind Dir Waves Ship Positions

X-preSS Tajumulco

Last reported at 2017-Nov-10 18:31 UTC. Time now 2017-Nov-21 02:30 UTC.
Position N 10°19' W 075°47'.
Warning: this ship's position is 10 days out of date.

Length 140 m; draft 7.3 m.

Type: Ship (hazmat cat A). MMSI: 564050000.

Date/timePositionNaut miles runAvg speedWind from/ knotsBaromVisibWave heightAir tempDewpointWater temp
2017-Nov-10 18:31N 10°19' W 075°47'010.6
2017-Nov-10 18:28N 10°19' W 075°47'510.7
2017-Nov-10 18:00N 10°19' W 075°42'611.1
2017-Nov-10 17:30N 10°19' W 075°36'4 9.0
2017-Nov-10 17:00N 10°21' W 075°32'3 6.9
2017-Nov-10 16:30N 10°24' W 075°32'0 0.0
2017-Nov-10 16:00N 10°24' W 075°32'0 0.0
2017-Nov-10 15:30N 10°24' W 075°32'0 0.0
2017-Nov-10 14:57N 10°24' W 075°32'0 0.0
2017-Nov-10 14:18N 10°24' W 075°32'0 0.0
2017-Nov-10 13:06N 10°24' W 075°32'0 0.0
2017-Nov-10 13:00N 10°24' W 075°32'0 0.0
2017-Nov-10 12:30N 10°24' W 075°32'5 0.4
2017-Nov-10 00:16N 10°20' W 075°33'14 6.1
2017-Nov-09 21:53N 10°28' W 075°45'74 3.2
2017-Nov-08 22:40N 11°11' W 074°43'412.3
2017-Nov-08 22:23N 11°11' W 074°47'512.0
2017-Nov-08 22:00N 11°10' W 074°51'3 5.6
2017-Nov-08 21:30N 11°07' W 074°52'5 9.6
2017-Nov-08 21:00N 11°03' W 074°50'2 0.1
2017-Nov-07 17:34N 11°01' W 074°47'1 7.9
2017-Nov-07 17:30N 11°02' W 074°48'4 7.7
2017-Nov-07 17:00N 11°04' W 074°51'3 6.9
2017-Nov-07 16:30N 11°07' W 074°53'4 8.6
2017-Nov-07 16:00N 11°07' W 074°57'4110.2
2017-Nov-07 12:00N 10°46' W 075°33'1111.3
2017-Nov-07 11:04N 10°37' W 075°39'111.3
2017-Nov-07 10:57N 10°36' W 075°40'1110.8
2017-Nov-07 09:57N 10°26' W 075°44'510.0
2017-Nov-07 09:30N 10°22' W 075°43'11 7.9
2017-Nov-07 08:08N 10°22' W 075°32'110.6
2017-Nov-07 08:00N 10°23' W 075°32'1 2.2
2017-Nov-07 07:30N 10°24' W 075°32'0 0.0
2017-Nov-07 07:00N 10°24' W 075°32'0 0.0
2017-Nov-07 06:30N 10°24' W 075°32'0 0.0
2017-Nov-07 06:00N 10°24' W 075°32'0 0.0
2017-Nov-07 05:30N 10°24' W 075°32'0 0.0
2017-Nov-07 05:00N 10°24' W 075°32'0 0.0
2017-Nov-07 04:30N 10°24' W 075°32'0 0.0
2017-Nov-07 04:00N 10°24' W 075°32'0 0.0
2017-Nov-07 03:30N 10°24' W 075°32'0 0.0
2017-Nov-07 03:00N 10°24' W 075°32'0 0.0
2017-Nov-07 02:30N 10°24' W 075°32'0 0.0
2017-Nov-07 02:00N 10°24' W 075°32'0 0.0
2017-Nov-07 01:30N 10°24' W 075°32'0 0.0
2017-Nov-07 01:00N 10°24' W 075°32'0 0.0
2017-Nov-07 00:30N 10°24' W 075°32'0 0.0
2017-Nov-07 00:00N 10°24' W 075°32'0 0.0
2017-Nov-06 23:30N 10°24' W 075°32'0 0.0
2017-Nov-06 23:00N 10°24' W 075°32'0 0.0
2017-Nov-06 22:30N 10°24' W 075°32'0 0.0
2017-Nov-06 21:57N 10°24' W 075°32'0 0.0
2017-Nov-06 21:30N 10°24' W 075°32'0 0.0
2017-Nov-06 21:00N 10°24' W 075°32'0 0.0
2017-Nov-06 20:30N 10°24' W 075°32'  

Dump ship's entire track history